Greaterville, Arizona
Current Conditions -  °F | °C
As of 7:56 AM on Friday 28 Nov 2014 (Local Time) from KALK Reporting Station
Clear Clear  
Wind Chill: 49°   Ceiling: Unl
Heat Index: 49°   Visibility: 10mi
Dew Point: 18°   Wind: 0mph
Humidity: 29%   Direction: NA
Pressure: 30.24"   Gusts: NA
Location:  31.7987°N, 110.687°W
Report Text: KALK 281456Z AUTO 00000KT 10SM CLR 09/M08 A3024 RMK AO2 SLP185 T00941078 53004 TSNO
Loading
Personal Weather Stations






























Interactive Weather Map New forecast layout! Learn more

10-Day Weather Forecast

Advertisements
Track Severe Weather on mobile